Time;durP1;ratioP1;P1;durP2;ratioP2;P2;SDS_P1;SDS_P2;PMS_P1;PMS_P2;Temp;Humidity;BMP_temperature;BMP_pressure;BME280_temperature;BME280_humidity;BME280_pressure;Samples;Min_cycle;Max_cycle;Signal;HPM_P1;HPM_P2
2022/12/14 00:01:00;;;;;;;14.32;9.52;;;-2.80;99.90;;;;;;474033;250;27104;-68
2022/12/14 00:03:01;;;;;;;12.25;8.43;;;-2.80;99.90;;;;;;473997;250;27121;-68
2022/12/14 00:05:03;;;;;;;14.07;9.13;;;-2.80;99.90;;;;;;474020;251;27040;-68
2022/12/14 00:07:04;;;;;;;12.70;9.07;;;-2.80;99.90;;;;;;473983;250;27637;-68
2022/12/14 00:09:06;;;;;;;16.67;9.90;;;;;;;;;;474021;250;27940;-69
2022/12/14 00:11:08;;;;;;;15.65;10.27;;;-2.90;99.90;;;;;;474006;250;26642;-69
2022/12/14 00:13:09;;;;;;;12.88;9.30;;;-2.80;99.90;;;;;;473981;250;27263;-67
2022/12/14 00:15:11;;;;;;;11.93;8.23;;;-2.80;99.90;;;;;;473990;250;27807;-68
2022/12/14 00:17:11;;;;;;;15.95;9.30;;;-2.80;99.90;;;;;;474038;250;27982;-70
2022/12/14 00:19:13;;;;;;;14.45;10.15;;;-2.80;99.90;;;;;;474016;250;27055;-68
2022/12/14 00:21:14;;;;;;;13.38;9.18;;;-2.70;99.90;;;;;;474015;251;27222;-69
2022/12/14 00:23:15;;;;;;;13.45;8.48;;;-2.60;99.90;;;;;;473998;250;26960;-68
2022/12/14 00:25:16;;;;;;;12.57;8.45;;;-2.60;99.90;;;;;;474013;250;27096;-68
2022/12/14 00:27:18;;;;;;;12.15;8.40;;;-2.50;99.90;;;;;;474013;250;27547;-69
2022/12/14 00:29:19;;;;;;;15.57;9.07;;;-2.60;99.90;;;;;;473992;250;27756;-68
2022/12/14 00:31:20;;;;;;;11.50;7.97;;;-2.70;99.90;;;;;;473988;250;27612;-69
2022/12/14 00:33:21;;;;;;;11.85;8.70;;;-2.70;99.90;;;;;;473991;250;27146;-67
2022/12/14 00:35:23;;;;;;;11.88;8.48;;;-2.60;99.90;;;;;;473977;250;27227;-69
2022/12/14 00:37:24;;;;;;;12.05;9.05;;;-2.50;99.90;;;;;;474016;250;26981;-68
2022/12/14 00:39:25;;;;;;;13.02;8.82;;;-2.50;99.90;;;;;;474019;250;27157;-67
2022/12/14 00:41:26;;;;;;;12.35;8.20;;;-2.60;99.90;;;;;;473990;251;27424;-68
2022/12/14 00:43:28;;;;;;;12.50;8.02;;;-2.50;99.90;;;;;;474014;250;27080;-68
2022/12/14 00:45:29;;;;;;;13.05;8.68;;;-2.50;99.90;;;;;;474000;250;28897;-68
2022/12/14 00:47:30;;;;;;;12.45;8.35;;;-2.50;99.90;;;;;;474012;250;29250;-68
2022/12/14 00:49:31;;;;;;;12.75;7.82;;;-2.50;99.90;;;;;;474038;250;27190;-68
2022/12/14 00:51:33;;;;;;;11.73;7.62;;;-2.50;99.90;;;;;;474027;250;27205;-67
2022/12/14 00:53:34;;;;;;;11.65;7.78;;;-2.40;99.90;;;;;;474028;250;27134;-68
2022/12/14 00:55:35;;;;;;;12.27;8.98;;;-2.50;99.90;;;;;;473992;250;27244;-68
2022/12/14 00:57:37;;;;;;;10.95;8.57;;;-2.60;99.90;;;;;;474005;250;27474;-70
2022/12/14 00:59:38;;;;;;;13.05;9.27;;;-2.60;99.90;;;;;;474010;250;27185;-68
2022/12/14 01:01:39;;;;;;;13.73;9.00;;;-2.50;99.90;;;;;;474016;251;27752;-68
2022/12/14 01:03:40;;;;;;;14.15;9.15;;;-2.50;99.90;;;;;;473866;248;28938;-68
2022/12/14 01:05:42;;;;;;;12.30;8.32;;;-2.50;99.90;;;;;;473978;250;27429;-67
2022/12/14 01:07:43;;;;;;;11.68;8.40;;;-2.40;99.90;;;;;;474005;250;27237;-68
2022/12/14 01:09:45;;;;;;;13.05;8.95;;;;;;;;;;474015;250;27459;-69
2022/12/14 01:11:46;;;;;;;9.70;7.15;;;-2.30;99.90;;;;;;473988;250;27784;-68
2022/12/14 01:13:48;;;;;;;13.18;8.02;;;-2.30;99.90;;;;;;473997;250;27109;-68
2022/12/14 01:15:49;;;;;;;11.82;8.05;;;-2.40;99.90;;;;;;473982;250;26996;-68
2022/12/14 01:17:51;;;;;;;11.68;8.10;;;-2.40;99.90;;;;;;474022;250;27321;-68
2022/12/14 01:19:52;;;;;;;12.13;8.48;;;-2.40;99.90;;;;;;473930;250;27186;-68
2022/12/14 01:21:53;;;;;;;12.52;8.75;;;-2.40;99.90;;;;;;473984;250;27170;-68
2022/12/14 01:23:54;;;;;;;12.88;8.23;;;-2.40;99.90;;;;;;473986;250;27790;-68
2022/12/14 01:25:55;;;;;;;16.80;9.20;;;-2.40;99.90;;;;;;474032;250;27812;-70
2022/12/14 01:27:57;;;;;;;13.40;8.77;;;-2.30;99.90;;;;;;474020;250;27919;-68
2022/12/14 01:29:58;;;;;;;10.38;7.55;;;-2.40;99.90;;;;;;473999;250;27295;-68
2022/12/14 01:31:59;;;;;;;11.45;7.80;;;-2.40;99.90;;;;;;473916;250;27043;-68
2022/12/14 01:34:00;;;;;;;12.30;7.72;;;-2.40;99.90;;;;;;473983;250;27305;-68
2022/12/14 01:36:02;;;;;;;10.57;7.57;;;-2.30;99.90;;;;;;474026;250;27423;-70
2022/12/14 01:38:03;;;;;;;14.85;9.00;;;-2.40;99.90;;;;;;474025;250;27001;-68
2022/12/14 01:40:04;;;;;;;11.85;7.75;;;-2.50;99.90;;;;;;474018;251;27755;-68
2022/12/14 01:42:05;;;;;;;11.27;8.25;;;-2.50;99.90;;;;;;482647;246;28766;-67
2022/12/14 01:44:07;;;;;;;11.60;8.27;;;-2.40;99.90;;;;;;476471;248;27413;-68
2022/12/14 01:46:08;;;;;;;12.98;8.57;;;-2.40;99.90;;;;;;474021;250;27135;-68
2022/12/14 01:48:09;;;;;;;13.77;8.68;;;-2.30;99.90;;;;;;476465;248;27154;-68
2022/12/14 01:50:10;;;;;;;12.25;8.73;;;-2.40;99.90;;;;;;474329;250;27647;-68
2022/12/14 01:52:12;;;;;;;12.07;8.90;;;-2.40;99.90;;;;;;473991;249;27413;-68
2022/12/14 01:54:13;;;;;;;12.90;8.68;;;-2.40;99.90;;;;;;473994;250;27346;-68
2022/12/14 01:56:14;;;;;;;12.57;7.62;;;-2.30;99.90;;;;;;473981;250;28546;-68
2022/12/14 01:58:15;;;;;;;11.00;7.50;;;-2.30;99.90;;;;;;474015;251;28961;-68
2022/12/14 02:00:17;;;;;;;11.63;7.97;;;-2.30;99.90;;;;;;474023;250;27306;-68
2022/12/14 02:02:18;;;;;;;10.43;8.18;;;-2.30;99.90;;;;;;473988;250;27405;-68
2022/12/14 02:04:19;;;;;;;10.63;7.40;;;-2.30;99.90;;;;;;473984;250;27310;-68
2022/12/14 02:06:20;;;;;;;11.10;8.13;;;-2.30;99.90;;;;;;482656;246;27362;-68
2022/12/14 02:08:22;;;;;;;12.37;8.45;;;-2.30;99.90;;;;;;476536;248;27153;-68
2022/12/14 02:10:23;;;;;;;12.15;8.48;;;-2.30;99.90;;;;;;473845;251;27436;-68
2022/12/14 02:12:24;;;;;;;13.62;8.40;;;-2.40;99.90;;;;;;476431;248;27919;-69
2022/12/14 02:14:25;;;;;;;13.05;9.32;;;-2.40;99.90;;;;;;473995;251;28890;-68
2022/12/14 02:16:27;;;;;;;14.30;9.30;;;-2.40;99.90;;;;;;476468;248;27406;-68
2022/12/14 02:18:28;;;;;;;13.20;8.85;;;-2.40;99.90;;;;;;474010;250;27096;-68
2022/12/14 02:20:29;;;;;;;12.20;8.60;;;-2.40;99.90;;;;;;474060;249;27230;-69
2022/12/14 02:22:31;;;;;;;15.00;9.48;;;-2.40;99.90;;;;;;473995;250;27268;-68
2022/12/14 02:24:33;;;;;;;12.75;8.40;;;-2.40;99.90;;;;;;474004;250;27414;-68
2022/12/14 02:26:33;;;;;;;15.25;8.48;;;-2.30;99.90;;;;;;473961;250;27692;-68
2022/12/14 02:28:34;;;;;;;11.68;8.65;;;-2.30;99.90;;;;;;473980;250;28953;-68
2022/12/14 02:30:36;;;;;;;10.65;8.23;;;-2.30;99.90;;;;;;474020;250;27274;-69
2022/12/14 02:32:37;;;;;;;13.18;9.05;;;-2.30;99.90;;;;;;474004;250;27456;-68
2022/12/14 02:34:38;;;;;;;14.02;9.23;;;-2.40;99.90;;;;;;473893;250;27307;-68
2022/12/14 02:36:39;;;;;;;14.68;8.60;;;-2.40;99.90;;;;;;473971;251;27374;-68
2022/12/14 02:38:41;;;;;;;12.18;8.55;;;-2.40;99.90;;;;;;473956;250;27324;-68
2022/12/14 02:40:42;;;;;;;12.63;8.57;;;-2.30;99.90;;;;;;474020;250;27477;-69
2022/12/14 02:42:43;;;;;;;13.85;9.75;;;-2.40;99.90;;;;;;474005;250;28829;-68
2022/12/14 02:44:44;;;;;;;13.10;8.30;;;-2.40;99.90;;;;;;473976;250;27335;-68
2022/12/14 02:46:46;;;;;;;10.75;8.35;;;-2.30;99.90;;;;;;473988;250;27237;-68
2022/12/14 02:48:47;;;;;;;14.10;9.98;;;-2.30;99.90;;;;;;473971;250;27296;-69
2022/12/14 02:50:48;;;;;;;13.35;9.30;;;-2.40;99.90;;;;;;474047;250;27207;-68
2022/12/14 02:52:49;;;;;;;13.55;9.25;;;-2.40;99.90;;;;;;474024;250;27393;-67
2022/12/14 02:54:51;;;;;;;12.25;9.10;;;-2.40;99.90;;;;;;482625;246;27273;-68
2022/12/14 02:56:52;;;;;;;12.98;8.98;;;-2.30;99.90;;;;;;473915;250;27645;-69
2022/12/14 02:58:53;;;;;;;12.05;8.70;;;-2.30;99.90;;;;;;476479;248;27755;-68
2022/12/14 03:00:54;;;;;;;12.88;9.65;;;-2.30;99.90;;;;;;474074;250;27461;-70
2022/12/14 03:02:56;;;;;;;12.90;8.98;;;-2.30;99.90;;;;;;476498;248;27281;-68
2022/12/14 03:04:57;;;;;;;12.37;7.87;;;-2.40;99.90;;;;;;473984;250;27414;-68
2022/12/14 03:06:58;;;;;;;12.77;7.75;;;-2.20;99.90;;;;;;476475;249;27285;-68
2022/12/14 03:08:59;;;;;;;12.70;8.68;;;-2.20;99.90;;;;;;474016;250;27430;-68
2022/12/14 03:11:01;;;;;;;13.62;8.23;;;-2.10;99.90;;;;;;476543;248;27314;-69
2022/12/14 03:13:02;;;;;;;10.88;7.78;;;-2.10;99.90;;;;;;474050;250;27822;-68
2022/12/14 03:15:03;;;;;;;10.98;7.55;;;-2.10;99.90;;;;;;476495;248;27870;-69
2022/12/14 03:17:04;;;;;;;10.63;7.35;;;-2.10;99.90;;;;;;474062;250;27129;-68
2022/12/14 03:19:06;;;;;;;10.80;7.45;;;-2.10;99.90;;;;;;476470;248;27305;-68
2022/12/14 03:21:07;;;;;;;10.77;7.50;;;-2.20;99.90;;;;;;474076;250;27364;-70
2022/12/14 03:23:08;;;;;;;10.77;7.65;;;-2.20;99.90;;;;;;476522;248;27404;-69
2022/12/14 03:25:09;;;;;;;9.68;7.25;;;-2.10;99.90;;;;;;474031;250;27410;-69
2022/12/14 03:27:11;;;;;;;11.77;7.82;;;-2.20;99.90;;;;;;476448;248;27272;-67
2022/12/14 03:29:12;;;;;;;9.57;7.25;;;-2.20;99.90;;;;;;474026;250;27900;-67
2022/12/14 03:31:13;;;;;;;11.20;8.15;;;-2.10;99.90;;;;;;476485;248;27686;-69
2022/12/14 03:33:14;;;;;;;9.27;7.10;;;-2.00;99.90;;;;;;474002;250;27296;-68
2022/12/14 03:35:16;;;;;;;12.65;8.32;;;-2.10;99.90;;;;;;476477;248;27507;-67
2022/12/14 03:37:17;;;;;;;15.10;8.95;;;-2.20;99.90;;;;;;474031;250;27425;-67
2022/12/14 03:39:18;;;;;;;15.55;9.23;;;-2.30;99.90;;;;;;476473;248;27274;-67
2022/12/14 03:41:19;;;;;;;12.35;8.60;;;-2.30;99.90;;;;;;474021;250;27809;-70
2022/12/14 03:43:21;;;;;;;14.38;8.35;;;-2.30;99.90;;;;;;476488;248;27855;-67
2022/12/14 03:45:22;;;;;;;9.80;8.35;;;-2.30;99.90;;;;;;473924;250;27819;-68
2022/12/14 03:47:23;;;;;;;14.10;9.15;;;-2.40;99.90;;;;;;476507;248;27096;-68
2022/12/14 03:49:25;;;;;;;13.82;9.25;;;-2.40;99.90;;;;;;474036;250;27377;-68
2022/12/14 03:51:26;;;;;;;13.07;8.25;;;-2.30;99.90;;;;;;476648;248;27247;-70
2022/12/14 03:53:27;;;;;;;11.57;8.02;;;-2.30;99.90;;;;;;473822;250;27314;-68
2022/12/14 03:55:28;;;;;;;11.57;8.90;;;-2.30;99.90;;;;;;473988;250;27326;-68
2022/12/14 03:57:30;;;;;;;13.88;9.02;;;-2.30;99.90;;;;;;473983;250;28765;-68
2022/12/14 03:59:31;;;;;;;13.10;8.57;;;-2.30;99.90;;;;;;474033;250;27868;-68
2022/12/14 04:01:32;;;;;;;13.70;9.55;;;-2.30;99.90;;;;;;473993;250;27432;-69
2022/12/14 04:03:33;;;;;;;17.17;9.70;;;-2.40;99.90;;;;;;473994;250;27282;-68
2022/12/14 04:05:35;;;;;;;14.73;9.20;;;-2.40;99.90;;;;;;473980;250;27432;-69
2022/12/14 04:07:36;;;;;;;13.48;8.95;;;-2.30;99.90;;;;;;473942;251;27316;-68
2022/12/14 04:09:37;;;;;;;16.15;9.52;;;-2.30;99.90;;;;;;474000;250;27358;-68
2022/12/14 04:20:56;;;;;;;13.55;8.25;;;-2.10;99.90;;;;;;473968;251;28627;-68
2022/12/14 04:22:58;;;;;;;14.32;9.63;;;-2.10;99.90;;;;;;476400;248;27965;-68
2022/12/14 04:27:19;;;;;;;13.23;8.70;;;-2.20;99.90;;;;;;476480;248;27751;-69
2022/12/14 04:31:39;;;;;;;13.02;8.88;;;-2.30;99.90;;;;;;476337;248;27519;-69
2022/12/14 04:33:47;;;;;;;12.02;8.80;;;-2.30;99.90;;;;;;473968;250;27638;-69
2022/12/14 04:35:48;;;;;;;11.60;8.50;;;-2.20;99.90;;;;;;476500;248;27526;-68
2022/12/14 04:37:49;;;;;;;11.95;7.78;;;-2.10;99.90;;;;;;474041;251;27656;-68
2022/12/14 04:39:50;;;;;;;11.80;8.35;;;-2.10;99.90;;;;;;476566;248;27728;-68
2022/12/14 04:41:52;;;;;;;13.38;9.25;;;-2.10;99.90;;;;;;474052;250;27393;-68
2022/12/14 04:43:53;;;;;;;14.00;10.20;;;-2.20;99.90;;;;;;476454;248;27382;-68
2022/12/14 04:45:54;;;;;;;12.80;8.55;;;-2.20;99.90;;;;;;474033;251;27423;-68
2022/12/14 04:47:55;;;;;;;12.70;8.35;;;-2.20;99.90;;;;;;476495;248;27325;-69
2022/12/14 04:49:57;;;;;;;13.23;9.50;;;-2.20;99.90;;;;;;473999;250;27211;-67
2022/12/14 04:51:58;;;;;;;12.60;9.32;;;-2.20;99.90;;;;;;476557;248;27239;-69
2022/12/14 04:53:59;;;;;;;11.40;7.50;;;-2.10;99.90;;;;;;473970;251;28047;-69
2022/12/14 04:56:00;;;;;;;15.77;9.23;;;-2.20;99.90;;;;;;476571;248;27850;-68
2022/12/14 04:58:02;;;;;;;17.83;9.32;;;-2.30;99.90;;;;;;474033;250;27543;-70
2022/12/14 05:00:04;;;;;;;12.25;8.05;;;-2.30;99.90;;;;;;476519;248;27275;-69
2022/12/14 05:02:05;;;;;;;13.40;9.20;;;;;;;;;;473981;250;27225;-68
2022/12/14 05:04:07;;;;;;;11.75;8.40;;;-2.20;99.90;;;;;;476470;248;28063;-68
2022/12/14 05:06:08;;;;;;;12.07;8.00;;;-2.10;99.90;;;;;;473968;251;27124;-69
2022/12/14 05:08:09;;;;;;;11.52;7.78;;;-2.00;99.90;;;;;;476554;248;27069;-68
2022/12/14 05:10:11;;;;;;;10.80;8.15;;;-2.00;99.90;;;;;;473950;251;27358;-68
2022/12/14 05:12:12;;;;;;;10.82;8.88;;;-2.00;99.90;;;;;;476319;248;27510;-70
2022/12/14 05:14:13;;;;;;;13.88;8.15;;;-2.10;99.90;;;;;;473951;251;27328;-67
2022/12/14 05:16:14;;;;;;;12.30;9.40;;;-2.10;99.90;;;;;;476450;243;27769;-69
2022/12/14 05:18:16;;;;;;;13.15;9.02;;;-2.20;99.90;;;;;;474030;250;27844;-67
2022/12/14 05:20:17;;;;;;;14.07;9.48;;;-2.20;99.90;;;;;;476528;248;27208;-68
2022/12/14 05:22:18;;;;;;;13.30;10.27;;;-2.20;99.90;;;;;;474053;250;27354;-70
2022/12/14 05:24:19;;;;;;;11.30;8.60;;;-2.10;99.90;;;;;;476571;248;27200;-68
2022/12/14 05:26:21;;;;;;;13.95;9.48;;;-2.10;99.90;;;;;;473966;250;27357;-69
2022/12/14 05:28:22;;;;;;;11.95;8.88;;;-2.10;99.90;;;;;;476530;248;27248;-68
2022/12/14 05:30:23;;;;;;;10.48;8.82;;;-2.10;99.90;;;;;;473959;250;27429;-69
2022/12/14 05:32:24;;;;;;;12.52;8.60;;;-2.10;99.90;;;;;;476599;248;27830;-70
2022/12/14 05:34:25;;;;;;;15.50;9.82;;;-2.10;99.90;;;;;;473976;251;28860;-68
2022/12/14 05:36:27;;;;;;;14.32;9.93;;;-2.00;99.90;;;;;;476436;248;27414;-69
2022/12/14 05:38:28;;;;;;;14.00;9.65;;;-2.10;99.90;;;;;;473973;250;27207;-69
2022/12/14 05:40:31;;;;;;;15.10;10.20;;;;;;;;;;476315;248;27404;-68
2022/12/14 05:42:32;;;;;;;14.48;9.70;;;-2.30;99.90;;;;;;473838;250;26973;-68
2022/12/14 05:44:33;;;;;;;13.77;9.98;;;-2.20;99.90;;;;;;476194;248;27456;-68
2022/12/14 05:46:34;;;;;;;15.13;9.93;;;-2.20;99.90;;;;;;473776;250;27498;-68
2022/12/14 05:48:35;;;;;;;14.98;9.95;;;-2.20;99.90;;;;;;476526;248;27392;-68
2022/12/14 05:50:37;;;;;;;15.57;10.98;;;-2.20;99.90;;;;;;474028;251;27318;-69
2022/12/14 05:52:38;;;;;;;17.70;10.20;;;-2.30;99.90;;;;;;476288;249;27296;-68
2022/12/14 05:54:39;;;;;;;15.57;10.43;;;-2.30;99.90;;;;;;473945;251;27902;-68
2022/12/14 05:56:40;;;;;;;15.38;10.30;;;-2.30;99.90;;;;;;476510;248;27777;-68
2022/12/14 05:58:42;;;;;;;15.90;9.52;;;-2.20;99.90;;;;;;473972;251;27445;-68
2022/12/14 06:00:43;;;;;;;16.08;9.77;;;-2.20;99.90;;;;;;476475;248;27337;-69
2022/12/14 06:02:44;;;;;;;15.38;10.13;;;-2.20;99.90;;;;;;474013;250;27410;-68
2022/12/14 06:04:46;;;;;;;14.80;10.50;;;-2.20;99.90;;;;;;476442;248;27401;-68
2022/12/14 06:06:47;;;;;;;17.90;11.43;;;-2.30;99.90;;;;;;473980;250;27600;-68
2022/12/14 06:08:48;;;;;;;14.98;11.15;;;-2.30;99.90;;;;;;476668;248;28871;-68
2022/12/14 06:10:49;;;;;;;15.02;10.75;;;-2.40;99.90;;;;;;474024;250;27206;-69
2022/12/14 06:12:51;;;;;;;16.10;11.35;;;-2.40;99.90;;;;;;476412;248;27297;-68
2022/12/14 06:14:52;;;;;;;18.90;12.25;;;-2.50;99.90;;;;;;473995;250;27311;-68
2022/12/14 06:16:53;;;;;;;14.10;10.93;;;-2.40;99.90;;;;;;476470;248;27125;-68
2022/12/14 06:18:54;;;;;;;13.90;10.63;;;-2.30;99.90;;;;;;474021;251;27855;-68
2022/12/14 06:20:56;;;;;;;14.77;10.48;;;-2.20;99.90;;;;;;476454;248;27781;-68
2022/12/14 06:22:57;;;;;;;16.25;10.50;;;-2.10;99.90;;;;;;474016;250;27301;-67
2022/12/14 06:24:58;;;;;;;14.00;9.65;;;-2.20;99.90;;;;;;476580;248;27195;-67
2022/12/14 06:26:59;;;;;;;17.02;10.48;;;-2.20;99.90;;;;;;473982;250;27294;-67
2022/12/14 06:29:01;;;;;;;17.52;11.25;;;-2.20;99.90;;;;;;476475;248;27326;-67
2022/12/14 06:31:02;;;;;;;12.15;8.85;;;-2.20;99.90;;;;;;474012;251;27235;-67
2022/12/14 06:33:03;;;;;;;19.02;10.77;;;-2.10;99.90;;;;;;476459;248;27724;-67
2022/12/14 06:35:04;;;;;;;14.45;9.93;;;-2.10;99.90;;;;;;473984;250;27784;-67
2022/12/14 06:37:07;;;;;;;12.00;9.00;;;-2.00;99.90;;;;;;476537;248;27317;-69
2022/12/14 06:39:08;;;;;;;11.90;8.60;;;-2.00;99.90;;;;;;474031;250;27650;-67
2022/12/14 06:41:09;;;;;;;11.45;8.43;;;-2.10;99.90;;;;;;476497;248;27579;-66
2022/12/14 06:43:11;;;;;;;13.27;9.50;;;-2.20;99.90;;;;;;474039;250;27930;-67
2022/12/14 06:45:12;;;;;;;13.80;9.45;;;-2.10;99.90;;;;;;476448;248;28512;-67
2022/12/14 06:47:13;;;;;;;13.07;9.30;;;-2.10;99.90;;;;;;474030;251;27393;-67
2022/12/14 06:49:14;;;;;;;11.93;8.57;;;-2.10;99.90;;;;;;476476;248;27443;-68
2022/12/14 06:51:16;;;;;;;16.55;9.73;;;-2.10;99.90;;;;;;474068;250;27324;-66
2022/12/14 06:53:17;;;;;;;15.25;9.70;;;-2.20;99.90;;;;;;476528;248;27467;-67
2022/12/14 06:55:18;;;;;;;14.95;10.05;;;-2.20;99.90;;;;;;474044;250;27244;-66
2022/12/14 06:57:19;;;;;;;15.70;9.68;;;-2.10;99.90;;;;;;476543;248;27735;-66
2022/12/14 06:59:21;;;;;;;12.65;10.07;;;-2.10;99.90;;;;;;474010;251;27921;-67
2022/12/14 07:01:22;;;;;;;15.68;10.65;;;-2.20;99.90;;;;;;476442;249;27392;-67
2022/12/14 07:03:23;;;;;;;17.73;11.10;;;-2.30;99.90;;;;;;473986;251;27440;-69
2022/12/14 07:05:24;;;;;;;16.20;9.93;;;-2.20;99.90;;;;;;476509;248;27439;-69
2022/12/14 07:07:26;;;;;;;12.98;9.90;;;-2.10;99.90;;;;;;474064;250;27504;-69
2022/12/14 07:09:27;;;;;;;17.10;11.05;;;-2.10;99.90;;;;;;476570;248;27442;-67
2022/12/14 07:11:28;;;;;;;14.85;10.40;;;-2.20;99.90;;;;;;474034;250;28159;-68
2022/12/14 07:13:29;;;;;;;13.05;9.80;;;-2.30;99.90;;;;;;476412;249;27963;-68
2022/12/14 07:15:31;;;;;;;14.07;10.23;;;-2.20;99.90;;;;;;474016;251;27204;-69
2022/12/14 07:17:32;;;;;;;12.65;9.45;;;-2.20;99.90;;;;;;476327;249;27257;-67
2022/12/14 07:19:33;;;;;;;13.52;9.50;;;-2.10;99.90;;;;;;474012;250;27317;-68
2022/12/14 07:21:34;;;;;;;13.60;10.35;;;-2.10;99.90;;;;;;476581;248;27138;-67
2022/12/14 07:23:36;;;;;;;12.82;9.73;;;-2.00;99.90;;;;;;474041;250;27453;-68
2022/12/14 07:25:37;;;;;;;17.67;10.80;;;-2.00;99.90;;;;;;476324;249;28320;-70
2022/12/14 07:27:38;;;;;;;14.48;10.60;;;-2.10;99.90;;;;;;474039;250;29019;-68
2022/12/14 07:29:39;;;;;;;15.95;10.35;;;-2.00;99.90;;;;;;476486;248;27442;-68
2022/12/14 07:31:41;;;;;;;19.60;12.15;;;-2.10;99.90;;;;;;474041;250;27283;-67
2022/12/14 07:33:42;;;;;;;14.38;10.27;;;-2.20;99.90;;;;;;476462;249;27562;-67
2022/12/14 07:35:43;;;;;;;16.77;11.20;;;-2.20;99.90;;;;;;474020;250;27427;-69
2022/12/14 07:37:44;;;;;;;14.73;10.35;;;-2.10;99.90;;;;;;476471;248;27794;-68
2022/12/14 07:39:46;;;;;;;15.55;10.70;;;-2.00;99.90;;;;;;473946;251;29048;-67
2022/12/14 07:41:47;;;;;;;15.88;10.50;;;-2.10;99.90;;;;;;476463;248;27385;-68
2022/12/14 07:43:48;;;;;;;18.45;11.68;;;-2.00;99.90;;;;;;474005;250;27335;-68
2022/12/14 07:45:50;;;;;;;14.48;10.00;;;-2.20;99.90;;;;;;476547;248;27499;-68
2022/12/14 07:47:51;;;;;;;14.87;10.32;;;-2.10;99.90;;;;;;473993;250;27407;-68
2022/12/14 07:49:52;;;;;;;17.87;11.05;;;-2.10;99.90;;;;;;476501;248;27592;-69
2022/12/14 07:51:53;;;;;;;14.18;10.18;;;-2.10;99.90;;;;;;473993;250;27896;-67
2022/12/14 07:53:55;;;;;;;16.83;11.55;;;-2.10;99.90;;;;;;476469;249;27096;-68
2022/12/14 07:55:56;;;;;;;20.52;11.57;;;-2.10;99.90;;;;;;473986;250;27463;-67
2022/12/14 07:57:57;;;;;;;19.30;11.32;;;-2.20;99.90;;;;;;474065;250;27477;-69
2022/12/14 07:59:58;;;;;;;16.65;10.52;;;-2.20;99.90;;;;;;476461;248;27104;-68
2022/12/14 08:02:00;;;;;;;17.73;10.85;;;-2.10;99.90;;;;;;474044;250;27413;-68
2022/12/14 08:04:01;;;;;;;19.10;11.50;;;-2.10;99.90;;;;;;476542;248;28020;-67
2022/12/14 08:06:02;;;;;;;18.80;12.23;;;-2.40;99.90;;;;;;473999;251;28377;-67
2022/12/14 08:08:03;;;;;;;18.70;12.80;;;-2.40;99.90;;;;;;476551;248;27334;-68
2022/12/14 08:10:05;;;;;;;16.33;11.98;;;-2.40;99.90;;;;;;473871;251;27381;-69
2022/12/14 08:12:06;;;;;;;17.33;12.55;;;-2.40;99.90;;;;;;476448;248;27324;-68
2022/12/14 08:14:07;;;;;;;17.85;12.15;;;-2.40;99.90;;;;;;474021;250;27343;-68
2022/12/14 08:16:08;;;;;;;22.58;13.10;;;-2.40;99.90;;;;;;476401;249;27823;-68
2022/12/14 08:18:10;;;;;;;22.62;13.10;;;-2.40;99.90;;;;;;474010;250;27774;-67
2022/12/14 08:20:11;;;;;;;22.17;13.57;;;-2.40;99.90;;;;;;476556;248;27340;-69
2022/12/14 08:22:12;;;;;;;25.80;13.70;;;-2.40;99.90;;;;;;474031;251;27393;-67
2022/12/14 08:24:14;;;;;;;18.17;11.98;;;-2.50;99.90;;;;;;476490;248;27526;-69
2022/12/14 08:26:15;;;;;;;22.40;12.88;;;-2.50;99.90;;;;;;474016;250;27086;-67
2022/12/14 08:28:16;;;;;;;20.05;13.70;;;-2.50;99.90;;;;;;476664;248;27076;-68
2022/12/14 08:30:17;;;;;;;23.23;14.50;;;-2.50;99.90;;;;;;474031;250;27780;-70
2022/12/14 08:32:18;;;;;;;18.87;13.15;;;-2.60;99.90;;;;;;474011;250;27277;-68
2022/12/14 08:34:21;;;;;;;18.05;13.05;;;-2.40;99.90;;;;;;474001;250;27436;-68
2022/12/14 08:36:21;;;;;;;22.42;13.68;;;-2.50;99.90;;;;;;473920;251;27383;-68
2022/12/14 08:38:22;;;;;;;20.50;14.18;;;-2.60;99.90;;;;;;474007;250;27180;-68
2022/12/14 08:40:24;;;;;;;18.37;12.82;;;-2.50;99.90;;;;;;474022;250;27325;-69
2022/12/14 08:42:25;;;;;;;17.92;12.05;;;-2.50;99.90;;;;;;473998;250;27647;-68
2022/12/14 08:44:26;;;;;;;18.30;12.65;;;-2.30;99.90;;;;;;474019;251;28864;-67
2022/12/14 08:46:27;;;;;;;18.05;11.45;;;-2.30;99.90;;;;;;473993;250;27414;-67
2022/12/14 08:48:29;;;;;;;18.52;12.05;;;-2.30;99.90;;;;;;473992;250;27352;-67
2022/12/14 08:50:30;;;;;;;21.92;13.10;;;-2.30;99.90;;;;;;474023;250;27209;-68
2022/12/14 08:52:31;;;;;;;22.80;12.90;;;-2.30;99.90;;;;;;474011;250;27488;-68
2022/12/14 08:54:32;;;;;;;18.02;12.48;;;-2.40;99.90;;;;;;473982;250;27765;-67
2022/12/14 08:56:34;;;;;;;17.23;12.20;;;-2.20;99.90;;;;;;473985;250;28542;-68
2022/12/14 08:58:35;;;;;;;15.88;10.68;;;-2.20;99.90;;;;;;474014;251;27499;-67
2022/12/14 09:00:39;;;;;;;21.85;13.57;;;-2.20;99.90;;;;;;474014;251;27437;-68
2022/12/14 09:02:37;;;;;;;16.48;11.88;;;-2.30;99.90;;;;;;473890;250;27404;-67
2022/12/14 09:04:39;;;;;;;19.30;12.45;;;-2.20;99.90;;;;;;473997;250;27459;-68
2022/12/14 09:06:40;;;;;;;20.25;13.27;;;-2.20;99.90;;;;;;473977;250;27915;-68
2022/12/14 09:08:41;;;;;;;18.92;12.25;;;-2.30;99.90;;;;;;474028;250;27935;-68
2022/12/14 09:10:42;;;;;;;19.62;13.80;;;-2.40;99.90;;;;;;474005;250;27437;-67
2022/12/14 09:12:44;;;;;;;20.67;12.88;;;-2.40;99.90;;;;;;474008;250;27274;-68
2022/12/14 09:14:45;;;;;;;24.20;14.45;;;-2.40;99.90;;;;;;473975;250;27458;-67
2022/12/14 09:16:46;;;;;;;21.37;14.02;;;-2.40;99.90;;;;;;474027;250;27308;-70
2022/12/14 09:18:47;;;;;;;24.92;15.35;;;-2.20;99.90;;;;;;474002;250;27325;-68
2022/12/14 09:20:50;;;;;;;22.55;15.48;;;-2.20;99.90;;;;;;474013;250;28002;-68
2022/12/14 09:22:50;;;;;;;23.67;14.90;;;-2.20;99.90;;;;;;473947;251;27897;-68
2022/12/14 09:24:51;;;;;;;22.65;15.38;;;-2.10;99.90;;;;;;473983;251;27441;-67
2022/12/14 09:26:53;;;;;;;19.90;14.30;;;-2.20;99.90;;;;;;473847;251;27358;-70
2022/12/14 09:28:54;;;;;;;22.37;14.40;;;-2.00;99.90;;;;;;475088;249;36172;-68
2022/12/14 09:30:55;;;;;;;21.62;15.20;;;-2.00;99.90;;;;;;474015;251;27429;-68
2022/12/14 09:32:56;;;;;;;20.85;14.98;;;-2.10;99.90;;;;;;476639;248;27283;-68
2022/12/14 09:34:58;;;;;;;22.65;14.18;;;-2.20;99.90;;;;;;474045;251;27885;-68
2022/12/14 09:37:03;;;;;;;21.23;14.50;;;-2.10;99.90;;;;;;476466;249;28026;-69
2022/12/14 09:39:00;;;;;;;23.75;15.32;;;-2.10;99.90;;;;;;473720;250;27413;-68
2022/12/14 09:41:01;;;;;;;23.95;15.30;;;-2.00;99.90;;;;;;476455;248;27454;-69
2022/12/14 09:43:03;;;;;;;21.95;13.95;;;-1.90;99.90;;;;;;474073;250;27441;-68
2022/12/14 09:45:04;;;;;;;21.17;14.32;;;-1.80;99.90;;;;;;476485;248;27418;-68
2022/12/14 09:47:05;;;;;;;22.65;15.60;;;-1.80;99.90;;;;;;474055;250;27453;-67
2022/12/14 09:49:07;;;;;;;22.15;15.25;;;-1.80;99.90;;;;;;476492;248;27412;-67
2022/12/14 09:51:08;;;;;;;24.48;14.55;;;-1.90;99.90;;;;;;473978;251;27879;-68
2022/12/14 09:53:09;;;;;;;22.90;15.60;;;-1.90;99.90;;;;;;476672;248;27913;-69
2022/12/14 09:55:10;;;;;;;24.52;15.57;;;-2.00;99.90;;;;;;474020;251;27401;-68
2022/12/14 09:57:12;;;;;;;24.02;15.00;;;-1.90;99.90;;;;;;476461;248;27502;-68
2022/12/14 09:59:13;;;;;;;23.27;14.68;;;-2.00;99.90;;;;;;474036;250;27407;-67
2022/12/14 10:01:14;;;;;;;23.33;15.43;;;-2.00;99.90;;;;;;476587;248;27399;-68
2022/12/14 10:03:15;;;;;;;24.90;16.10;;;-2.00;99.90;;;;;;474090;250;27325;-68
2022/12/14 10:05:17;;;;;;;25.70;16.15;;;-2.10;99.90;;;;;;476513;248;27491;-67
2022/12/14 10:07:18;;;;;;;21.77;14.65;;;-1.90;99.90;;;;;;473901;251;27911;-68
2022/12/14 10:09:19;;;;;;;18.58;12.37;;;-1.80;99.90;;;;;;476467;248;27865;-68
2022/12/14 10:11:20;;;;;;;19.45;12.88;;;-1.80;99.90;;;;;;474036;250;27397;-68
2022/12/14 10:13:22;;;;;;;22.62;14.27;;;-1.80;99.90;;;;;;476493;248;27431;-68
2022/12/14 10:15:23;;;;;;;19.65;13.62;;;-1.70;99.90;;;;;;473979;251;27495;-67
2022/12/14 10:17:25;;;;;;;22.48;13.85;;;-1.80;99.90;;;;;;476495;248;27436;-68
2022/12/14 10:19:26;;;;;;;20.85;14.30;;;-2.00;99.90;;;;;;474008;251;27226;-68
2022/12/14 10:21:28;;;;;;;24.45;16.17;;;-2.00;99.90;;;;;;476558;248;27330;-69
2022/12/14 10:23:29;;;;;;;21.12;14.25;;;-2.00;99.90;;;;;;473991;251;27947;-68
2022/12/14 10:25:30;;;;;;;24.05;14.70;;;-1.90;99.90;;;;;;476587;248;29010;-67
2022/12/14 10:27:32;;;;;;;20.30;14.65;;;-1.80;99.90;;;;;;474005;251;27415;-68
2022/12/14 10:29:33;;;;;;;24.48;16.02;;;-1.90;99.90;;;;;;476495;248;27440;-68
2022/12/14 10:31:34;;;;;;;22.95;15.73;;;-2.00;99.90;;;;;;474050;250;27476;-68
2022/12/14 10:33:35;;;;;;;27.15;16.15;;;-2.10;99.90;;;;;;476481;249;27450;-68